createdAt,value
2024-01-24T00:00:40.679Z,90.54
2024-01-24T00:01:40.607Z,90.54
2024-01-24T00:02:40.536Z,90.44
2024-01-24T00:03:40.614Z,90.33
2024-01-24T00:04:40.526Z,90.23
2024-01-24T00:05:40.542Z,90.75
2024-01-24T00:06:40.546Z,90.44
2024-01-24T00:07:40.526Z,90.54
2024-01-24T00:08:40.458Z,90.64
2024-01-24T00:09:40.496Z,90.64
2024-01-24T00:10:40.438Z,90.75
2024-01-24T00:11:40.477Z,90.85
2024-01-24T00:12:40.460Z,90.95
2024-01-24T00:13:41.679Z,90.85
2024-01-24T00:14:40.388Z,90.54
2024-01-24T00:15:40.442Z,90.12
2024-01-24T00:16:40.359Z,89.81
2024-01-24T00:17:40.423Z,89.87
2024-01-24T00:18:40.420Z,89.46
2024-01-24T00:19:40.534Z,89.25
2024-01-24T00:20:40.321Z,89.46
2024-01-24T00:21:40.324Z,89.15
2024-01-24T00:22:40.275Z,88.94
2024-01-24T00:23:40.285Z,89.15
2024-01-24T00:24:40.321Z,89.36
2024-01-24T00:25:40.299Z,89.46
2024-01-24T00:26:40.244Z,89.15
2024-01-24T00:27:40.273Z,89.15
2024-01-24T00:28:40.195Z,89.25
2024-01-24T00:29:40.232Z,88.32
2024-01-24T00:30:40.243Z,88.11
2024-01-24T00:31:40.300Z,88.11
2024-01-24T00:32:40.218Z,88.07
2024-01-24T00:33:40.242Z,88.28
2024-01-24T00:34:40.216Z,88.39
2024-01-24T00:35:40.164Z,88.28
2024-01-24T00:36:40.121Z,87.97
2024-01-24T00:37:40.179Z,87.76
2024-01-24T00:38:40.103Z,88.07
2024-01-24T00:39:40.137Z,88.18
2024-01-24T00:40:40.060Z,88.59
2024-01-24T00:41:40.043Z,88.94
2024-01-24T00:42:40.079Z,89.25
2024-01-24T00:43:40.068Z,89.67
2024-01-24T00:44:39.990Z,90.08
2024-01-24T00:45:40.038Z,90.60
2024-01-24T00:46:39.964Z,90.81
2024-01-24T00:47:39.988Z,90.81
2024-01-24T00:48:39.999Z,90.19
2024-01-24T00:49:40.011Z,89.36
2024-01-24T00:50:39.922Z,89.36
2024-01-24T00:51:39.983Z,89.46
2024-01-24T00:52:39.929Z,89.15
2024-01-24T00:53:39.891Z,88.18
2024-01-24T00:54:39.879Z,88.07
2024-01-24T00:55:39.908Z,88.28
2024-01-24T00:56:39.842Z,88.18
2024-01-24T00:57:39.845Z,87.97
2024-01-24T00:58:39.829Z,88.28
2024-01-24T00:59:39.808Z,88.39
2024-01-24T01:00:39.870Z,87.97
2024-01-24T01:01:39.852Z,87.66
2024-01-24T01:02:39.759Z,88.18
2024-01-24T01:03:39.809Z,88.48
2024-01-24T01:04:39.724Z,88.59
2024-01-24T01:05:39.950Z,88.59
2024-01-24T01:06:39.721Z,89.11
2024-01-24T01:07:39.746Z,89.31
2024-01-24T01:08:39.681Z,89.52
2024-01-24T01:09:39.706Z,90.04
2024-01-24T01:10:39.658Z,90.35
2024-01-24T01:11:39.678Z,90.35
2024-01-24T01:12:39.665Z,90.66
2024-01-24T01:13:39.762Z,90.77
2024-01-24T01:14:39.595Z,90.87
2024-01-24T01:15:39.693Z,90.87
2024-01-24T01:16:39.570Z,90.56
2024-01-24T01:17:39.579Z,90.14
2024-01-24T01:18:39.603Z,90.25
2024-01-24T01:19:39.623Z,89.83
2024-01-24T01:20:39.518Z,89.73
2024-01-24T01:21:39.625Z,89.58
2024-01-24T01:22:39.530Z,89.58
2024-01-24T01:23:39.498Z,89.69
2024-01-24T01:24:39.500Z,89.69
2024-01-24T01:25:39.528Z,89.28
2024-01-24T01:26:39.432Z,89.28
2024-01-24T01:27:39.515Z,88.96
2024-01-24T01:28:39.400Z,88.65
2024-01-24T01:29:39.403Z,88.86
2024-01-24T01:30:39.422Z,89.28
2024-01-24T01:31:39.524Z,88.76
2024-01-24T01:32:39.394Z,88.34
2024-01-24T01:33:39.494Z,88.76
2024-01-24T01:34:39.436Z,88.55
2024-01-24T01:35:39.333Z,89.07
2024-01-24T01:36:39.369Z,89.28
2024-01-24T01:37:39.359Z,89.17
2024-01-24T01:38:39.268Z,89.38
2024-01-24T01:39:39.299Z,89.38
2024-01-24T01:40:39.261Z,89.38
2024-01-24T01:41:39.288Z,89.69
2024-01-24T01:42:39.271Z,90.00
2024-01-24T01:43:39.339Z,90.00
2024-01-24T01:44:39.200Z,90.00
2024-01-24T01:45:39.215Z,89.54
2024-01-24T01:46:39.190Z,89.13
2024-01-24T01:47:39.205Z,89.13
2024-01-24T01:48:39.265Z,89.13
2024-01-24T01:49:39.353Z,88.92
2024-01-24T01:50:39.113Z,88.40
2024-01-24T01:51:39.192Z,88.71
2024-01-24T01:52:39.100Z,88.30
2024-01-24T01:53:39.086Z,87.95
2024-01-24T01:54:39.115Z,87.74
2024-01-24T01:55:39.110Z,87.64
2024-01-24T01:56:39.071Z,87.85
2024-01-24T01:57:39.057Z,87.33
2024-01-24T01:58:39.028Z,87.64
2024-01-24T01:59:39.004Z,87.54
2024-01-24T02:00:39.020Z,87.74
2024-01-24T02:01:39.543Z,87.95
2024-01-24T02:02:39.045Z,87.74
2024-01-24T02:03:39.191Z,87.64
2024-01-24T02:04:38.931Z,87.85
2024-01-24T02:05:39.412Z,87.64
2024-01-24T02:06:39.117Z,87.43
2024-01-24T02:07:39.087Z,87.54
2024-01-24T02:08:38.974Z,87.54
2024-01-24T02:09:38.983Z,87.54
2024-01-24T02:10:38.850Z,87.85
2024-01-24T02:11:38.867Z,87.95
2024-01-24T02:12:38.889Z,88.16
2024-01-24T02:13:38.812Z,88.06
2024-01-24T02:14:38.811Z,87.74
2024-01-24T02:15:38.881Z,87.85
2024-01-24T02:16:38.821Z,87.74
2024-01-24T02:17:38.800Z,87.39
2024-01-24T02:18:38.844Z,87.39
2024-01-24T02:19:38.767Z,87.08
2024-01-24T02:20:38.723Z,86.98
2024-01-24T02:21:38.808Z,86.67
2024-01-24T02:22:38.735Z,86.77
2024-01-24T02:23:38.694Z,86.57
2024-01-24T02:24:38.707Z,86.57
2024-01-24T02:25:38.697Z,86.63
2024-01-24T02:26:38.667Z,86.42
2024-01-24T02:27:38.658Z,86.77
2024-01-24T02:28:38.627Z,86.83
2024-01-24T02:29:38.597Z,86.77
2024-01-24T02:30:38.645Z,87.08
2024-01-24T02:31:39.012Z,87.18
2024-01-24T02:32:38.602Z,87.08
2024-01-24T02:33:38.646Z,86.98
2024-01-24T02:34:38.658Z,86.67
2024-01-24T02:35:38.550Z,86.57
2024-01-24T02:36:38.543Z,86.46
2024-01-24T02:37:38.552Z,86.57
2024-01-24T02:38:38.494Z,86.77
2024-01-24T02:39:38.480Z,86.57
2024-01-24T02:40:38.505Z,86.36
2024-01-24T02:41:38.453Z,86.15
2024-01-24T02:42:38.495Z,85.94
2024-01-24T02:43:38.492Z,85.28
2024-01-24T02:44:38.415Z,85.28
2024-01-24T02:45:38.455Z,85.49
2024-01-24T02:46:38.402Z,85.39
2024-01-24T02:47:38.383Z,85.60
2024-01-24T02:48:38.456Z,85.39
2024-01-24T02:49:38.651Z,85.18
2024-01-24T02:50:38.327Z,85.28
2024-01-24T02:51:38.347Z,85.49
2024-01-24T02:52:38.324Z,85.18
2024-01-24T02:53:38.286Z,85.39
2024-01-24T02:54:38.402Z,85.39
2024-01-24T02:55:38.313Z,85.28
2024-01-24T02:56:38.297Z,85.49
2024-01-24T02:57:38.306Z,85.49
2024-01-24T02:58:38.319Z,85.60
2024-01-24T02:59:38.207Z,85.18
2024-01-24T03:00:38.259Z,85.08
2024-01-24T03:01:38.213Z,85.18
2024-01-24T03:02:38.180Z,85.39
2024-01-24T03:03:38.201Z,84.97
2024-01-24T03:04:38.334Z,84.77
2024-01-24T03:05:38.127Z,84.63
2024-01-24T03:06:38.222Z,84.31
2024-01-24T03:07:38.260Z,84.11
2024-01-24T03:08:38.096Z,84.11
2024-01-24T03:09:38.166Z,84.42
2024-01-24T03:10:38.139Z,84.42
2024-01-24T03:11:38.081Z,84.63
2024-01-24T03:12:38.116Z,84.63
2024-01-24T03:13:38.018Z,84.83
2024-01-24T03:14:38.017Z,84.73
2024-01-24T03:15:38.033Z,84.97
2024-01-24T03:16:38.032Z,84.94
2024-01-24T03:17:38.057Z,85.24
2024-01-24T03:18:38.030Z,85.55
2024-01-24T03:19:38.057Z,86.83
2024-01-24T03:20:37.968Z,86.94
2024-01-24T03:21:38.623Z,86.73
2024-01-24T03:22:38.054Z,86.67
2024-01-24T03:23:37.908Z,86.42
2024-01-24T03:24:37.923Z,86.01
2024-01-24T03:25:37.880Z,85.91
2024-01-24T03:26:37.871Z,85.80
2024-01-24T03:27:37.906Z,85.91
2024-01-24T03:28:37.955Z,85.80
2024-01-24T03:29:37.807Z,85.91
2024-01-24T03:30:37.812Z,85.80
2024-01-24T03:31:37.788Z,85.49
2024-01-24T03:32:37.797Z,85.49
2024-01-24T03:33:37.852Z,85.24
2024-01-24T03:34:37.896Z,85.24
2024-01-24T03:35:37.751Z,85.97
2024-01-24T03:36:37.756Z,85.91
2024-01-24T03:37:37.719Z,85.70
2024-01-24T03:38:37.693Z,85.35
2024-01-24T03:39:37.738Z,84.63
2024-01-24T03:40:37.733Z,84.94
2024-01-24T03:41:37.660Z,84.42
2024-01-24T03:42:37.702Z,84.11
2024-01-24T03:43:37.663Z,84.21
2024-01-24T03:44:37.654Z,84.31
2024-01-24T03:45:37.668Z,84.21
2024-01-24T03:46:37.656Z,84.21
2024-01-24T03:47:37.606Z,84.21
2024-01-24T03:48:37.650Z,84.31
2024-01-24T03:49:37.663Z,84.31
2024-01-24T03:50:37.538Z,84.42
2024-01-24T03:51:37.555Z,84.52
2024-01-24T03:52:38.184Z,84.11
2024-01-24T03:53:37.497Z,84.07
2024-01-24T03:54:37.510Z,83.76
2024-01-24T03:55:37.464Z,83.65
2024-01-24T03:56:37.473Z,83.76
2024-01-24T03:57:37.537Z,84.07
2024-01-24T03:58:37.547Z,84.28
2024-01-24T03:59:37.442Z,84.63
2024-01-24T04:00:37.472Z,84.48
2024-01-24T04:01:37.409Z,84.48
2024-01-24T04:02:37.387Z,84.38
2024-01-24T04:03:37.445Z,84.07
2024-01-24T04:04:37.498Z,84.38
2024-01-24T04:05:37.355Z,84.07
2024-01-24T04:06:37.517Z,84.07
2024-01-24T04:07:37.314Z,83.45
2024-01-24T04:08:37.321Z,83.45
2024-01-24T04:09:37.368Z,83.45
2024-01-24T04:10:37.282Z,83.34
2024-01-24T04:11:37.259Z,83.55
2024-01-24T04:12:37.281Z,83.65
2024-01-24T04:13:37.231Z,83.65
2024-01-24T04:14:37.235Z,83.76
2024-01-24T04:15:37.314Z,84.07
2024-01-24T04:16:37.201Z,83.65
2024-01-24T04:17:37.221Z,83.55
2024-01-24T04:18:37.266Z,83.55
2024-01-24T04:19:37.274Z,83.55
2024-01-24T04:20:37.149Z,84.69
2024-01-24T04:21:37.177Z,84.79
2024-01-24T04:22:37.140Z,83.93
2024-01-24T04:23:37.105Z,83.62
2024-01-24T04:24:37.165Z,83.31
2024-01-24T04:25:37.077Z,83.00
2024-01-24T04:26:37.100Z,83.00
2024-01-24T04:27:37.133Z,83.20
2024-01-24T04:28:37.052Z,82.75
2024-01-24T04:29:37.023Z,82.69
2024-01-24T04:30:37.074Z,82.65
2024-01-24T04:31:37.023Z,82.86
2024-01-24T04:32:37.108Z,82.65
2024-01-24T04:33:37.230Z,82.75
2024-01-24T04:34:37.086Z,82.65
2024-01-24T04:35:36.964Z,82.75
2024-01-24T04:36:37.044Z,82.75
2024-01-24T04:37:36.920Z,82.86
2024-01-24T04:38:36.904Z,82.86
2024-01-24T04:39:37.002Z,83.06
2024-01-24T04:40:36.915Z,83.06
2024-01-24T04:41:40.110Z,83.17
2024-01-24T04:42:36.884Z,83.37
2024-01-24T04:43:36.843Z,83.48
2024-01-24T04:44:36.831Z,82.82
2024-01-24T04:45:36.927Z,82.71
2024-01-24T04:46:36.803Z,82.71
2024-01-24T04:47:36.830Z,82.40
2024-01-24T04:48:36.835Z,82.40
2024-01-24T04:49:44.590Z,82.30
2024-01-24T04:50:36.849Z,82.20
2024-01-24T04:51:37.082Z,82.40
2024-01-24T04:52:36.735Z,82.20
2024-01-24T04:53:36.711Z,83.13
2024-01-24T04:54:36.734Z,83.85
2024-01-24T04:55:36.778Z,84.27
2024-01-24T04:56:36.687Z,84.36
2024-01-24T04:57:36.680Z,84.16
2024-01-24T04:58:36.688Z,84.27
2024-01-24T04:59:45.872Z,84.27
2024-01-24T05:00:36.659Z,84.22
2024-01-24T05:01:37.554Z,84.43
2024-01-24T05:02:36.591Z,84.94
2024-01-24T05:03:36.628Z,85.71
2024-01-24T05:04:36.642Z,85.81
2024-01-24T05:05:37.766Z,86.02
2024-01-24T05:06:36.662Z,86.02
2024-01-24T05:07:36.523Z,85.71
2024-01-24T05:08:36.518Z,86.26
2024-01-24T05:09:36.533Z,87.71
2024-01-24T05:10:36.501Z,88.53
2024-01-24T05:11:36.450Z,88.84
2024-01-24T05:12:36.490Z,89.61
2024-01-24T05:13:36.429Z,89.92
2024-01-24T05:14:36.431Z,90.33
2024-01-24T05:15:36.459Z,90.84
2024-01-24T05:16:36.407Z,91.22
2024-01-24T05:17:36.412Z,91.01
2024-01-24T05:18:36.451Z,90.91
2024-01-24T05:19:36.593Z,90.95
2024-01-24T05:20:36.390Z,91.05
2024-01-24T05:21:36.346Z,91.94
2024-01-24T05:22:36.339Z,92.04
2024-01-24T05:23:36.359Z,91.94
2024-01-24T05:24:36.320Z,92.31
2024-01-24T05:25:36.280Z,91.79
2024-01-24T05:26:36.281Z,91.69
2024-01-24T05:27:36.272Z,91.63
2024-01-24T05:28:36.244Z,92.46
2024-01-24T05:29:36.301Z,92.46
2024-01-24T05:30:37.101Z,92.46
2024-01-24T05:31:36.221Z,92.66
2024-01-24T05:32:36.248Z,92.46
2024-01-24T05:33:36.245Z,92.25
2024-01-24T05:34:36.297Z,92.14
2024-01-24T05:35:36.145Z,92.60
2024-01-24T05:36:36.219Z,92.86
2024-01-24T05:37:36.120Z,92.86
2024-01-24T05:38:36.119Z,92.31
2024-01-24T05:39:36.180Z,92.10
2024-01-24T05:40:36.073Z,92.00
2024-01-24T05:41:36.077Z,91.38
2024-01-24T05:42:36.644Z,90.76
2024-01-24T05:43:36.038Z,90.25
2024-01-24T05:44:36.025Z,90.25
2024-01-24T05:45:36.071Z,89.94
2024-01-24T05:46:36.002Z,89.83
2024-01-24T05:47:36.036Z,90.25
2024-01-24T05:48:36.717Z,90.55
2024-01-24T05:49:36.028Z,91.17
2024-01-24T05:50:35.952Z,91.17
2024-01-24T05:51:35.976Z,90.45
2024-01-24T05:52:35.931Z,90.80
2024-01-24T05:53:35.959Z,91.42
2024-01-24T05:54:35.933Z,91.63
2024-01-24T05:55:35.872Z,91.63
2024-01-24T05:56:35.884Z,91.22
2024-01-24T05:57:35.910Z,90.86
2024-01-24T05:58:35.851Z,90.86
2024-01-24T05:59:35.927Z,90.86
2024-01-24T06:00:35.909Z,91.07
2024-01-24T06:01:35.895Z,90.86
2024-01-24T06:02:35.791Z,90.55
2024-01-24T06:03:35.972Z,90.35
2024-01-24T06:04:35.929Z,90.04
2024-01-24T06:05:35.987Z,89.69
2024-01-24T06:06:35.862Z,89.28
2024-01-24T06:07:35.841Z,89.69
2024-01-24T06:08:35.722Z,90.20
2024-01-24T06:09:35.770Z,90.00
2024-01-24T06:10:35.693Z,89.83
2024-01-24T06:11:35.700Z,91.79
2024-01-24T06:12:35.720Z,91.85
2024-01-24T06:13:35.643Z,91.64
2024-01-24T06:14:35.629Z,90.72
2024-01-24T06:15:35.657Z,90.06
2024-01-24T06:16:35.639Z,89.85
2024-01-24T06:17:35.759Z,89.58
2024-01-24T06:18:35.654Z,89.79
2024-01-24T06:19:35.605Z,89.69
2024-01-24T06:20:35.579Z,89.83
2024-01-24T06:21:35.568Z,90.66
2024-01-24T06:22:35.611Z,91.69
2024-01-24T06:23:35.510Z,91.89
2024-01-24T06:24:35.544Z,91.79
2024-01-24T06:25:35.488Z,91.79
2024-01-24T06:26:35.475Z,92.31
2024-01-24T06:27:35.505Z,92.14
2024-01-24T06:28:35.503Z,92.04
2024-01-24T06:30:15.916Z,92.35
2024-01-24T06:30:35.451Z,91.89
2024-01-24T06:31:35.434Z,91.89
2024-01-24T06:32:35.410Z,91.58
2024-01-24T06:33:35.422Z,91.07
2024-01-24T06:34:35.496Z,90.55
2024-01-24T06:35:35.377Z,92.00
2024-01-24T06:36:35.395Z,92.21
2024-01-24T06:37:35.339Z,92.41
2024-01-24T06:38:35.310Z,92.51
2024-01-24T06:39:35.374Z,92.72
2024-01-24T06:40:35.356Z,92.61
2024-01-24T06:41:35.284Z,92.00
2024-01-24T06:42:35.259Z,91.48
2024-01-24T06:43:35.254Z,91.28
2024-01-24T06:44:35.227Z,91.38
2024-01-24T06:45:35.243Z,91.28
2024-01-24T06:46:35.256Z,91.48
2024-01-24T06:47:35.259Z,91.69
2024-01-24T06:48:35.218Z,91.58
2024-01-24T06:49:35.322Z,91.69
2024-01-24T06:50:35.140Z,91.64
2024-01-24T06:51:36.153Z,91.64
2024-01-24T06:52:35.159Z,91.17
2024-01-24T06:53:35.129Z,91.89
2024-01-24T06:54:35.170Z,92.06
2024-01-24T06:55:35.117Z,91.85
2024-01-24T06:56:35.067Z,91.71
2024-01-24T06:57:35.082Z,91.81
2024-01-24T06:58:36.034Z,91.77
2024-01-24T06:59:35.204Z,90.12
2024-01-24T07:00:35.269Z,89.40
2024-01-24T07:01:35.170Z,89.71
2024-01-24T07:02:34.977Z,90.43
2024-01-24T07:03:35.114Z,90.64
2024-01-24T07:04:35.066Z,90.53
2024-01-24T07:05:34.975Z,90.33
2024-01-24T07:06:35.104Z,90.12
2024-01-24T07:07:34.938Z,90.12
2024-01-24T07:08:35.905Z,89.81
2024-01-24T07:09:35.072Z,89.61
2024-01-24T07:10:34.919Z,89.61
2024-01-24T07:11:34.900Z,90.06
2024-01-24T07:12:35.124Z,89.91
2024-01-24T07:13:34.864Z,89.71
2024-01-24T07:14:34.829Z,89.40
2024-01-24T07:15:34.877Z,88.99
2024-01-24T07:16:34.810Z,88.68
2024-01-24T07:17:34.848Z,88.78
2024-01-24T07:18:34.936Z,88.72
2024-01-24T07:19:34.824Z,89.03
2024-01-24T07:20:34.759Z,89.23
2024-01-24T07:21:34.796Z,89.03
2024-01-24T07:22:34.724Z,88.62
2024-01-24T07:23:34.728Z,88.45
2024-01-24T07:24:35.126Z,88.96
2024-01-24T07:25:34.698Z,89.38
2024-01-24T07:26:34.665Z,89.38
2024-01-24T07:27:35.897Z,89.38
2024-01-24T07:28:34.656Z,89.58
2024-01-24T07:29:34.628Z,89.69
2024-01-24T07:30:34.687Z,90.25
2024-01-24T07:31:34.621Z,90.25
2024-01-24T07:32:34.622Z,90.55
2024-01-24T07:33:34.693Z,90.66
2024-01-24T07:34:34.730Z,91.07
2024-01-24T07:35:34.597Z,91.28
2024-01-24T07:36:34.639Z,91.34
2024-01-24T07:37:34.534Z,91.54
2024-01-24T07:38:34.523Z,92.02
2024-01-24T07:39:34.524Z,91.91
2024-01-24T07:40:34.480Z,91.60
2024-01-24T07:41:34.483Z,91.15
2024-01-24T07:42:34.598Z,90.99
2024-01-24T07:43:34.460Z,90.43
2024-01-24T07:44:34.550Z,90.12
2024-01-24T07:45:34.472Z,90.53
2024-01-24T07:46:34.464Z,90.49
2024-01-24T07:47:34.486Z,89.97
2024-01-24T07:48:34.580Z,89.94
2024-01-24T07:49:34.709Z,89.73
2024-01-24T07:50:34.361Z,88.96
2024-01-24T07:51:34.492Z,88.45
2024-01-24T07:52:40.816Z,88.24
2024-01-24T07:53:34.724Z,88.04
2024-01-24T07:54:34.353Z,87.22
2024-01-24T07:55:41.657Z,86.91
2024-01-24T07:56:34.371Z,87.18
2024-01-24T07:57:34.351Z,87.18
2024-01-24T07:58:34.403Z,87.07
2024-01-24T07:59:34.253Z,87.18
2024-01-24T08:00:34.325Z,87.18
2024-01-24T08:01:34.294Z,87.38
2024-01-24T08:02:34.202Z,87.79
2024-01-24T08:03:34.293Z,88.31
2024-01-24T08:04:34.362Z,87.75
2024-01-24T08:05:34.177Z,87.20
2024-01-24T08:06:34.343Z,87.10
2024-01-24T08:07:34.676Z,86.89
2024-01-24T08:08:34.135Z,86.99
2024-01-24T08:09:34.181Z,86.85
2024-01-24T08:10:34.089Z,86.65
2024-01-24T08:11:34.107Z,86.54
2024-01-24T08:12:34.613Z,86.24
2024-01-24T08:13:34.058Z,86.58
2024-01-24T08:14:35.458Z,86.79
2024-01-24T08:15:34.071Z,86.58
2024-01-24T08:16:34.079Z,86.48
2024-01-24T08:17:34.022Z,86.38
2024-01-24T08:18:34.040Z,86.58
2024-01-24T08:19:34.043Z,86.79
2024-01-24T08:20:33.946Z,86.99
2024-01-24T08:21:33.976Z,87.10
2024-01-24T08:22:34.043Z,87.40
2024-01-24T08:23:42.407Z,87.26
2024-01-24T08:24:34.005Z,87.16
2024-01-24T08:25:33.899Z,87.57
2024-01-24T08:26:33.896Z,87.67
2024-01-24T08:27:33.979Z,87.67
2024-01-24T08:28:33.875Z,87.67
2024-01-24T08:29:37.711Z,87.12
2024-01-24T08:30:33.872Z,86.91
2024-01-24T08:31:33.828Z,86.77
2024-01-24T08:32:33.884Z,86.98
2024-01-24T08:33:34.032Z,86.36
2024-01-24T08:34:33.984Z,86.11
2024-01-24T08:35:33.761Z,86.22
2024-01-24T08:36:33.804Z,85.71
2024-01-24T08:37:33.745Z,85.46
2024-01-24T08:38:33.925Z,84.53
2024-01-24T08:39:33.744Z,83.58
2024-01-24T08:40:33.691Z,83.17
2024-01-24T08:41:33.701Z,82.41
2024-01-24T08:42:34.122Z,82.57
2024-01-24T08:43:33.658Z,82.68
2024-01-24T08:44:33.628Z,82.03
2024-01-24T08:45:33.713Z,82.43
2024-01-24T08:46:33.626Z,82.54
2024-01-24T08:47:33.674Z,82.64
2024-01-24T08:48:33.723Z,81.41
2024-01-24T08:49:33.765Z,81.01
2024-01-24T08:50:33.582Z,81.21
2024-01-24T08:51:33.650Z,81.21
2024-01-24T08:52:33.538Z,81.41
2024-01-24T08:53:33.528Z,81.31
2024-01-24T08:54:35.661Z,80.08
2024-01-24T08:55:33.499Z,80.29
2024-01-24T08:56:33.474Z,80.08
2024-01-24T08:57:33.470Z,79.68
2024-01-24T08:58:33.488Z,79.98
2024-01-24T08:59:33.485Z,79.68
2024-01-24T09:00:33.458Z,79.78
2024-01-24T09:01:33.553Z,79.88
2024-01-24T09:02:33.399Z,78.86
2024-01-24T09:03:33.436Z,78.31
2024-01-24T09:04:33.492Z,76.23
2024-01-24T09:05:33.446Z,75.21
2024-01-24T09:06:33.395Z,75.58
2024-01-24T09:07:33.427Z,75.17
2024-01-24T09:08:33.358Z,73.27
2024-01-24T09:09:33.418Z,72.62
2024-01-24T09:10:33.338Z,72.21
2024-01-24T09:11:38.313Z,71.15
2024-01-24T09:12:33.711Z,71.87
2024-01-24T09:13:33.280Z,71.46
2024-01-24T09:14:33.247Z,71.26
2024-01-24T09:15:33.490Z,71.77
2024-01-24T09:16:33.211Z,71.36
2024-01-24T09:17:33.223Z,70.95
2024-01-24T09:18:33.549Z,71.56
2024-01-24T09:19:33.248Z,70.85
2024-01-24T09:20:33.149Z,70.61
2024-01-24T09:21:33.198Z,70.21
2024-01-24T09:22:33.119Z,70.51
2024-01-24T09:23:33.159Z,69.70
2024-01-24T09:24:33.215Z,69.80
2024-01-24T09:25:33.095Z,69.90
2024-01-24T09:26:33.116Z,70.28
2024-01-24T09:27:33.085Z,69.15
2024-01-24T09:28:33.052Z,69.56
2024-01-24T09:29:33.030Z,70.17
2024-01-24T09:30:33.066Z,68.75
2024-01-24T09:31:33.036Z,68.65
2024-01-24T09:32:33.224Z,68.51
2024-01-24T09:33:34.464Z,68.82
2024-01-24T09:34:33.117Z,68.62
2024-01-24T09:35:33.149Z,67.49
2024-01-24T09:36:32.992Z,67.19
2024-01-24T09:37:32.973Z,67.80
2024-01-24T09:38:32.914Z,68.01
2024-01-24T09:39:32.996Z,68.01
2024-01-24T09:40:32.915Z,66.88
2024-01-24T09:41:32.871Z,62.78
2024-01-24T09:42:33.173Z,64.38
2024-01-24T09:43:32.866Z,64.18
2024-01-24T09:44:32.820Z,64.28
2024-01-24T09:45:32.880Z,65.19
2024-01-24T09:46:32.785Z,64.58
2024-01-24T09:47:32.867Z,64.58
2024-01-24T09:48:32.836Z,65.09
2024-01-24T09:49:32.893Z,65.50
2024-01-24T09:50:32.758Z,64.58
2024-01-24T09:51:32.813Z,64.89
2024-01-24T09:52:32.711Z,65.70
2024-01-24T09:53:32.761Z,64.58
2024-01-24T09:54:32.921Z,64.79
2024-01-24T09:55:32.814Z,64.38
2024-01-24T09:56:32.693Z,64.00
2024-01-24T09:57:32.724Z,64.31
2024-01-24T09:58:32.655Z,64.34
2024-01-24T09:59:32.637Z,65.16
2024-01-24T10:00:32.648Z,65.66
2024-01-24T10:01:32.653Z,66.61
2024-01-24T10:02:33.129Z,67.02
2024-01-24T10:03:34.861Z,66.41
2024-01-24T10:04:32.663Z,66.50
2024-01-24T10:05:32.546Z,66.61
2024-01-24T10:06:32.643Z,67.08
2024-01-24T10:07:32.647Z,67.69
2024-01-24T10:08:32.536Z,68.31
2024-01-24T10:09:32.543Z,68.62
2024-01-24T10:10:32.482Z,68.71
2024-01-24T10:11:32.474Z,68.99
2024-01-24T10:12:32.581Z,69.40
2024-01-24T10:13:32.444Z,68.48
2024-01-24T10:14:32.420Z,68.07
2024-01-24T10:15:32.447Z,67.77
2024-01-24T10:16:32.394Z,67.46
2024-01-24T10:17:32.456Z,66.24
2024-01-24T10:18:32.631Z,64.31
2024-01-24T10:19:32.407Z,64.61
2024-01-24T10:20:32.354Z,65.94
2024-01-24T10:21:32.396Z,66.65
2024-01-24T10:22:32.411Z,66.44
2024-01-24T10:23:32.320Z,65.12
2024-01-24T10:24:32.364Z,64.99
2024-01-24T10:25:32.313Z,64.07
2024-01-24T10:26:32.267Z,64.69
2024-01-24T10:27:33.433Z,63.97
2024-01-24T10:28:32.262Z,64.58
2024-01-24T10:29:32.229Z,65.19
2024-01-24T10:30:32.297Z,64.79
2024-01-24T10:31:32.195Z,65.09
2024-01-24T10:32:32.208Z,64.99
2024-01-24T10:33:32.383Z,64.69
2024-01-24T10:34:32.239Z,64.48
2024-01-24T10:35:32.218Z,64.58
2024-01-24T10:36:33.812Z,64.58
2024-01-24T10:37:32.140Z,65.30
2024-01-24T10:38:32.151Z,65.47
2024-01-24T10:39:32.108Z,65.67
2024-01-24T10:40:32.092Z,64.86
2024-01-24T10:41:32.316Z,64.76
2024-01-24T10:42:32.077Z,63.43
2024-01-24T10:43:32.038Z,64.15
2024-01-24T10:44:32.035Z,63.23
2024-01-24T10:45:32.033Z,62.52
2024-01-24T10:46:32.013Z,62.82
2024-01-24T10:47:32.080Z,62.21
2024-01-24T10:48:32.145Z,61.78
2024-01-24T10:49:32.079Z,61.27
2024-01-24T10:50:31.970Z,60.66
2024-01-24T10:51:31.958Z,60.76
2024-01-24T10:52:31.943Z,60.97
2024-01-24T10:53:31.895Z,60.94
2024-01-24T10:54:31.968Z,60.13
2024-01-24T10:55:31.901Z,59.69
2024-01-24T10:56:32.089Z,60.20
2024-01-24T10:57:31.892Z,61.69
2024-01-24T10:58:32.109Z,60.17
2024-01-24T10:59:31.818Z,60.78
2024-01-24T11:00:31.922Z,59.36
2024-01-24T11:01:31.912Z,59.66
2024-01-24T11:02:31.817Z,60.78
2024-01-24T11:03:31.841Z,60.27
2024-01-24T11:04:31.815Z,59.33
2024-01-24T11:05:31.763Z,60.14
2024-01-24T11:06:31.832Z,59.53
2024-01-24T11:07:31.709Z,59.63
2024-01-24T11:08:39.956Z,58.11
2024-01-24T11:09:31.765Z,57.60
2024-01-24T11:10:31.731Z,58.62
2024-01-24T11:11:31.666Z,58.92
2024-01-24T11:12:32.182Z,59.33
2024-01-24T11:13:31.628Z,59.43
2024-01-24T11:14:32.002Z,59.84
2024-01-24T11:15:31.679Z,60.55
2024-01-24T11:16:31.651Z,59.53
2024-01-24T11:17:31.605Z,59.03
2024-01-24T11:18:31.713Z,59.03
2024-01-24T11:19:31.855Z,58.59
2024-01-24T11:20:31.538Z,58.49
2024-01-24T11:21:33.523Z,60.21
2024-01-24T11:22:31.580Z,60.49
2024-01-24T11:23:31.504Z,60.77
2024-01-24T11:24:31.565Z,60.13
2024-01-24T11:25:31.480Z,59.70
2024-01-24T11:26:31.466Z,59.36
2024-01-24T11:27:31.780Z,57.24
2024-01-24T11:28:31.448Z,57.65
2024-01-24T11:29:31.421Z,57.27
2024-01-24T11:30:31.493Z,56.26
2024-01-24T11:31:31.388Z,55.68
2024-01-24T11:32:31.400Z,57.20
2024-01-24T11:33:31.499Z,58.61
2024-01-24T11:34:31.470Z,58.74
2024-01-24T11:35:31.333Z,57.42
2024-01-24T11:36:31.403Z,58.23
2024-01-24T11:37:31.298Z,59.85
2024-01-24T11:38:31.873Z,59.25
2024-01-24T11:39:31.325Z,58.23
2024-01-24T11:40:31.350Z,59.34
2024-01-24T11:41:31.272Z,60.26
2024-01-24T11:42:31.375Z,59.95
2024-01-24T11:43:33.760Z,59.88
2024-01-24T11:44:31.230Z,59.38
2024-01-24T11:45:31.255Z,58.76
2024-01-24T11:46:31.236Z,59.68
2024-01-24T11:47:31.190Z,59.10
2024-01-24T11:48:31.431Z,58.90
2024-01-24T11:49:31.284Z,59.63
2024-01-24T11:50:31.164Z,59.63
2024-01-24T11:51:31.132Z,59.74
2024-01-24T11:52:31.145Z,59.53
2024-01-24T11:53:31.121Z,60.37
2024-01-24T11:54:31.176Z,61.18
2024-01-24T11:55:31.066Z,61.18
2024-01-24T11:56:31.095Z,61.49
2024-01-24T11:57:31.071Z,60.81
2024-01-24T11:58:31.037Z,60.81
2024-01-24T11:59:31.026Z,59.77
2024-01-24T12:00:31.113Z,60.27
2024-01-24T12:01:31.066Z,59.77
2024-01-24T12:02:30.983Z,59.77
2024-01-24T12:03:31.002Z,60.68
2024-01-24T12:04:31.008Z,61.69
2024-01-24T12:05:30.940Z,61.18
2024-01-24T12:06:31.037Z,60.17
2024-01-24T12:07:30.919Z,60.47
2024-01-24T12:08:30.901Z,60.40
2024-01-24T12:09:30.889Z,61.32
2024-01-24T12:10:30.891Z,61.82
2024-01-24T12:11:30.883Z,61.08
2024-01-24T12:12:30.947Z,60.37
2024-01-24T12:13:31.086Z,60.68
2024-01-24T12:14:30.824Z,60.78
2024-01-24T12:15:30.849Z,60.98
2024-01-24T12:16:30.809Z,61.08
2024-01-24T12:17:30.802Z,59.12
2024-01-24T12:18:30.863Z,58.82
2024-01-24T12:19:30.876Z,58.80
2024-01-24T12:20:30.793Z,57.68
2024-01-24T12:21:30.738Z,58.16
2024-01-24T12:22:30.725Z,57.55
2024-01-24T12:23:30.697Z,58.16
2024-01-24T12:24:30.722Z,57.73
2024-01-24T12:25:30.780Z,56.92
2024-01-24T12:26:30.657Z,56.92
2024-01-24T12:27:30.667Z,56.92
2024-01-24T12:28:31.036Z,56.69
2024-01-24T12:29:30.615Z,56.48
2024-01-24T12:30:30.647Z,56.59
2024-01-24T12:31:31.261Z,55.77
2024-01-24T12:32:30.712Z,55.95
2024-01-24T12:33:30.650Z,55.75
2024-01-24T12:34:30.635Z,55.24
2024-01-24T12:35:30.530Z,55.75
2024-01-24T12:36:30.579Z,55.95
2024-01-24T12:37:30.543Z,55.75
2024-01-24T12:38:30.538Z,55.44
2024-01-24T12:39:30.513Z,54.94
2024-01-24T12:40:30.469Z,53.52
2024-01-24T12:41:30.474Z,53.52
2024-01-24T12:42:31.206Z,53.70
2024-01-24T12:43:30.412Z,53.40
2024-01-24T12:44:30.452Z,53.60
2024-01-24T12:45:30.452Z,53.40
2024-01-24T12:46:31.273Z,53.19
2024-01-24T12:47:30.426Z,54.31
2024-01-24T12:48:30.502Z,53.90
2024-01-24T12:49:30.847Z,54.11
2024-01-24T12:50:30.457Z,54.51
2024-01-24T12:51:30.452Z,54.51
2024-01-24T12:52:30.694Z,54.61